Aviation Digital Data Service (ADDS)

Output produced by METARs form (0344 UTC 23 November 2017)
found at http://www.aviationweather.gov/adds/metars/
 
TAF SGAS 230400Z 2306/2406 15006KT CAVOK TX31/2318Z TN14/2309Z 
     BECMG 2316/2319 VRB05KT CAVOK
       
TAF SGES 230400Z 2306/2406 18005KT CAVOK TX32/2318Z TN14/2309Z 
     BECMG 2308/2311 6000 NSC 
     BECMG 2314/2317 14005KT 9999 SCT033 
     BECMG 2321/2323 VRB05KT CAVOK
       
TAF SGCO 230400Z 2306/2406 16012KT CAVOK TX34/2318Z TN16/2309Z 
     BECMG 2318/2321 VRB05KT 9999 SCT033 
     BECMG 2320/2323 07005KT CAVOK